Time;durP1;ratioP1;P1;durP2;ratioP2;P2;SDS_P1;SDS_P2;PMS_P1;PMS_P2;Temp;Humidity;BMP_temperature;BMP_pressure;BME280_temperature;BME280_humidity;BME280_pressure;Samples;Min_cycle;Max_cycle;Signal;HPM_P1;HPM_P2
2022/07/01 00:01:47;;;;;;;23.90;21.70;;;;;;;20.31;100.00;98491.17;105256;1271;61304;-75
2022/07/01 00:04:15;;;;;;;23.90;21.70;;;;;;;20.33;100.00;98491.13;105274;1271;76283;-75
2022/07/01 00:06:42;;;;;;;23.00;21.00;;;;;;;20.36;100.00;98493.27;105274;1271;68380;-75
2022/07/01 00:09:08;;;;;;;21.20;19.20;;;;;;;20.37;100.00;98491.78;105251;1271;73346;-76
2022/07/01 00:11:35;;;;;;;22.30;20.20;;;;;;;20.32;100.00;98485.45;105236;1270;61355;-75
2022/07/01 00:14:02;;;;;;;21.60;19.80;;;;;;;20.33;100.00;98486.30;105275;1271;61806;-76
2022/07/01 00:16:29;;;;;;;21.20;19.50;;;;;;;20.32;100.00;98486.77;105023;1272;73698;-75
2022/07/01 00:18:55;;;;;;;23.00;20.50;;;;;;;20.30;100.00;98480.29;105286;1271;70276;-77
2022/07/01 00:21:22;;;;;;;22.00;19.80;;;;;;;20.33;100.00;98479.10;105262;1271;73626;-77
2022/07/01 00:23:48;;;;;;;21.20;19.30;;;;;;;20.32;100.00;98479.70;105228;1271;61403;-77
2022/07/01 00:26:15;;;;;;;21.40;19.50;;;;;;;20.29;100.00;98482.94;105273;1271;61326;-76
2022/07/01 00:28:41;;;;;;;21.90;19.90;;;;;;;20.24;100.00;98481.33;105275;1271;76198;-76
2022/07/01 00:31:08;;;;;;;22.10;19.90;;;;;;;20.20;100.00;98478.00;105263;1271;71244;-76
2022/07/01 00:33:35;;;;;;;22.60;20.60;;;;;;;20.15;100.00;98470.83;104984;1272;74560;-75
2022/07/01 00:36:01;;;;;;;22.30;20.40;;;;;;;20.12;100.00;98471.42;105220;1268;61257;-76
2022/07/01 00:38:28;;;;;;;22.30;20.10;;;;;;;20.10;100.00;98462.06;105252;1271;61384;-76
2022/07/01 00:40:55;;;;;;;22.90;20.90;;;;;;;20.10;100.00;98459.56;105238;1271;76154;-75
2022/07/01 00:43:26;;;;;;;21.00;19.10;;;;;;;20.11;100.00;98463.73;105055;1274;70098;-75
2022/07/01 00:45:53;;;;;;;22.80;20.80;;;;;;;20.09;100.00;98460.55;105263;1271;74218;-75
2022/07/01 00:48:22;;;;;;;21.40;19.60;;;;;;;20.07;100.00;98457.91;105274;1271;61270;-75
2022/07/01 00:50:49;;;;;;;20.40;18.60;;;;;;;20.02;100.00;98454.86;105383;1271;61305;-76
2022/07/01 00:53:16;;;;;;;21.30;19.20;;;;;;;19.96;100.00;98453.23;105246;1271;76058;-75
2022/07/01 00:55:42;;;;;;;18.80;17.10;;;;;;;19.93;100.00;98448.23;105247;1270;69432;-75
2022/07/01 00:58:09;;;;;;;20.10;18.10;;;;;;;19.89;100.00;98452.59;105262;1271;74345;-75
2022/07/01 01:00:38;;;;;;;23.10;20.80;;;;;;;19.84;100.00;98453.98;105204;1271;61425;-75
2022/07/01 01:03:07;;;;;;;23.50;21.10;;;;;;;19.83;100.00;98454.45;105310;1271;61380;-75
2022/07/01 01:05:34;;;;;;;22.70;20.50;;;;;;;19.86;100.00;98454.65;105276;1270;75084;-76
2022/07/01 01:08:01;;;;;;;23.80;21.30;;;;;;;19.87;100.00;98461.45;105263;1271;69160;-75
2022/07/01 01:10:27;;;;;;;23.80;21.30;;;;;;;19.87;100.00;98459.52;105292;1270;73317;-76
2022/07/01 01:12:56;;;;;;;23.30;21.20;;;;;;;19.86;100.00;98458.91;105221;1271;61337;-76
2022/07/01 01:15:23;;;;;;;23.60;21.30;;;;;;;19.87;100.00;98458.20;105311;1271;61917;-76
2022/07/01 01:17:50;;;;;;;24.50;22.10;;;;;;;19.89;100.00;98458.50;105259;1271;76103;-76
2022/07/01 01:20:18;;;;;;;24.20;21.70;;;;;;;19.91;100.00;98462.41;104992;1274;70132;-76
2022/07/01 01:22:46;;;;;;;22.70;20.40;;;;;;;19.92;100.00;98464.02;105453;1271;72664;-75
2022/07/01 01:25:13;;;;;;;23.20;20.40;;;;;;;19.93;100.00;98467.75;105358;1271;61320;-75
2022/07/01 01:27:40;;;;;;;23.00;21.00;;;;;;;19.91;100.00;98461.91;105238;1271;61319;-73
2022/07/01 01:30:11;;;;;;;22.00;20.20;;;;;;;19.89;100.00;98462.11;105252;1271;75512;-76
2022/07/01 01:32:40;;;;;;;22.60;20.70;;;;;;;19.87;100.00;98459.33;105528;1271;69267;-77
2022/07/01 01:35:09;;;;;;;20.50;18.70;;;;;;;19.85;100.00;98462.00;105041;1274;74714;-75
2022/07/01 01:37:36;;;;;;;23.40;21.00;;;;;;;19.80;100.00;98463.30;105308;1271;61397;-73
2022/07/01 01:40:03;;;;;;;22.10;20.10;;;;;;;19.75;100.00;98461.70;105243;1271;61202;-76
2022/07/01 01:42:30;;;;;;;20.90;18.90;;;;;;;19.72;100.00;98462.23;105051;1274;76636;-75
2022/07/01 01:44:57;;;;;;;23.00;20.90;;;;;;;19.68;100.00;98462.86;105269;1271;68113;-75
2022/07/01 01:47:24;;;;;;;23.50;21.10;;;;;;;19.65;100.00;98461.59;105287;1271;73328;-75
2022/07/01 01:49:51;;;;;;;22.30;20.10;;;;;;;19.62;100.00;98460.05;105265;1271;61305;-74
2022/07/01 01:52:17;;;;;;;22.10;19.90;;;;;;;19.61;100.00;98461.46;105284;1271;61188;-74
2022/07/01 01:54:44;;;;;;;22.90;20.50;;;;;;;19.59;100.00;98463.51;105316;1271;75285;-75
2022/07/01 01:57:11;;;;;;;23.60;21.00;;;;;;;19.58;100.00;98460.70;105274;1271;61344;-76
2022/07/01 01:59:38;;;;;;;22.30;20.30;;;;;;;19.60;100.00;98461.98;105328;1271;74857;-77
2022/07/01 02:02:05;;;;;;;22.30;20.30;;;;;;;19.61;100.00;98459.92;105260;1271;61473;-77
2022/07/01 02:04:32;;;;;;;20.40;18.50;;;;;;;19.61;100.00;98462.21;105268;1271;61289;-77
2022/07/01 02:06:59;;;;;;;21.70;19.60;;;;;;;19.62;100.00;98465.54;105202;1271;75368;-76
2022/07/01 02:09:28;;;;;;;19.90;18.00;;;;;;;19.61;100.00;98467.09;105357;1271;69417;-77
2022/07/01 02:11:54;;;;;;;20.00;18.00;;;;;;;19.58;100.00;98468.81;105624;1270;74517;-76
2022/07/01 02:14:21;;;;;;;18.90;16.90;;;;;;;19.59;100.00;98466.77;105250;1271;61272;-76
2022/07/01 02:16:47;;;;;;;20.40;18.00;;;;;;;19.59;100.00;98467.59;105252;1272;61283;-76
2022/07/01 02:19:14;;;;;;;20.20;18.20;;;;;;;19.62;100.00;98470.39;105340;1271;75392;-76
2022/07/01 02:21:41;;;;;;;34.80;31.60;;;;;;;19.63;100.00;98472.99;105355;1271;68081;-75
2022/07/01 02:24:07;;;;;;;29.70;27.20;;;;;;;19.63;100.00;98473.86;105324;1270;74203;-75
2022/07/01 02:26:35;;;;;;;22.30;20.30;;;;;;;19.62;100.00;98472.19;105285;1271;61239;-75
2022/07/01 02:29:02;;;;;;;19.10;17.50;;;;;;;19.63;100.00;98471.83;105277;1271;61780;-75
2022/07/01 02:31:29;;;;;;;18.40;16.60;;;;;;;19.65;100.00;98473.60;105277;1271;75182;-75
2022/07/01 02:33:56;;;;;;;18.30;16.70;;;;;;;19.68;100.00;98471.89;105025;1271;70436;-76
2022/07/01 02:36:23;;;;;;;18.40;16.80;;;;;;;19.70;100.00;98472.77;105286;1271;72167;-76
2022/07/01 02:38:49;;;;;;;18.70;17.10;;;;;;;19.71;100.00;98474.38;105300;1271;61423;-76
2022/07/01 02:41:16;;;;;;;18.40;16.70;;;;;;;19.72;100.00;98473.73;105261;1271;61208;-76
2022/07/01 02:43:43;;;;;;;20.00;16.40;;;;;;;19.74;100.00;98479.70;105245;1271;75356;-77
2022/07/01 02:46:09;;;;;;;20.00;17.50;;;;;;;19.74;100.00;98479.30;105288;1271;69142;-76
2022/07/01 02:48:36;;;;;;;17.80;16.20;;;;;;;19.77;100.00;98475.88;105253;1271;71450;-77
2022/07/01 02:51:02;;;;;;;17.60;16.00;;;;;;;19.82;100.00;98476.27;105296;1271;61425;-76
2022/07/01 02:53:29;;;;;;;18.20;16.30;;;;;;;19.88;100.00;98481.13;105270;1271;61315;-76
2022/07/01 02:55:55;;;;;;;17.10;15.50;;;;;;;19.96;100.00;98481.45;105005;1274;75045;-76
2022/07/01 02:58:22;;;;;;;17.80;16.30;;;;;;;20.04;100.00;98475.41;105298;1270;69064;-77
2022/07/01 03:00:50;;;;;;;18.00;16.50;;;;;;;20.10;100.00;98476.13;104999;1271;73088;-76
2022/07/01 03:03:16;;;;;;;20.40;18.30;;;;;;;20.17;100.00;98478.73;105078;1271;61236;-77
2022/07/01 03:05:43;;;;;;;19.60;17.70;;;;;;;20.23;100.00;98480.55;105328;1271;61311;-76
2022/07/01 03:08:10;;;;;;;19.90;18.00;;;;;;;20.29;100.00;98482.89;105300;1271;75405;-76
2022/07/01 03:10:36;;;;;;;19.50;17.70;;;;;;;20.38;100.00;98485.99;105247;1270;61201;-77
2022/07/01 03:13:03;;;;;;;18.90;17.20;;;;;;;20.47;100.00;98485.13;105027;1271;73393;-77
2022/07/01 03:15:29;;;;;;;20.40;18.20;;;;;;;20.54;100.00;98489.19;105024;1274;61505;-76
2022/07/01 03:17:56;;;;;;;19.90;17.90;;;;;;;20.65;100.00;98489.59;105248;1271;61267;-77
2022/07/01 03:20:23;;;;;;;20.60;18.50;;;;;;;20.78;100.00;98488.31;105263;1271;76077;-75
2022/07/01 03:22:50;;;;;;;19.50;17.60;;;;;;;20.87;100.00;98487.40;105236;1271;70075;-77
2022/07/01 03:25:17;;;;;;;20.90;19.00;;;;;;;20.95;100.00;98487.41;105268;1271;73234;-76
2022/07/01 03:27:47;;;;;;;21.20;19.00;;;;;;;21.05;100.00;98485.34;105228;1272;62053;-76
2022/07/01 03:30:15;;;;;;;20.20;18.10;;;;;;;21.19;100.00;98488.02;105257;1271;61243;-75
2022/07/01 03:32:42;;;;;;;19.70;18.00;;;;;;;21.59;100.00;98489.27;105386;1271;75852;-76
2022/07/01 03:37:56;;;;;;;18.90;17.10;;;;;;;23.24;100.00;98482.32;105239;1271;73376;-76
2022/07/01 03:40:22;;;;;;;18.90;16.90;;;;;;;23.90;100.00;98487.34;104958;1274;61287;-76
2022/07/01 03:42:49;;;;;;;18.50;16.80;;;;;;;24.56;100.00;98491.00;105007;1274;61736;-76
2022/07/01 03:45:15;;;;;;;17.70;15.90;;;;;;;25.15;100.00;98496.68;105234;1271;76080;-76
2022/07/01 03:47:46;;;;;;;16.10;14.80;;;;;;;25.72;100.00;98498.95;105237;1271;69261;-77
2022/07/01 03:50:13;;;;;;;17.00;15.40;;;;;;;26.19;100.00;98498.02;105269;1271;74142;-77
2022/07/01 03:52:41;;;;;;;15.70;14.20;;;;;;;26.71;100.00;98498.18;105226;1271;61294;-76
2022/07/01 03:55:09;;;;;;;17.30;15.80;;;;;;;27.21;100.00;98498.55;105220;1271;61590;-77
2022/07/01 03:57:36;;;;;;;16.90;15.30;;;;;;;27.65;100.00;98498.98;105258;1271;76447;-77
2022/07/01 04:00:05;;;;;;;16.00;14.60;;;;;;;28.12;100.00;98501.21;105249;1271;70313;-75
2022/07/01 04:02:31;;;;;;;17.00;15.30;;;;;;;28.60;100.00;98501.08;105202;1274;74060;-75
2022/07/01 04:04:58;;;;;;;16.30;15.00;;;;;;;29.00;100.00;98503.19;105274;1271;61283;-75
2022/07/01 04:07:25;;;;;;;15.50;14.30;;;;;;;29.46;100.00;98507.17;105024;1271;61316;-75
2022/07/01 04:09:52;;;;;;;16.30;14.90;;;;;;;29.94;100.00;98509.70;105250;1271;73267;-76
2022/07/01 04:12:20;;;;;;;16.30;14.70;;;;;;;30.35;100.00;98514.48;105283;1271;70442;-76
2022/07/01 04:14:46;;;;;;;15.60;14.20;;;;;;;30.68;100.00;98508.19;104982;1271;73807;-76
2022/07/01 04:17:13;;;;;;;16.00;14.30;;;;;;;31.03;100.00;98509.14;105196;1271;61288;-76
2022/07/01 04:19:40;;;;;;;14.90;13.50;;;;;;;31.38;100.00;98505.36;105254;1271;62217;-77
2022/07/01 04:24:52;;;;;;;15.10;13.70;;;;;;;31.64;100.00;98511.10;105277;1271;69200;-76
2022/07/01 04:27:18;;;;;;;16.00;14.50;;;;;;;31.70;100.00;98514.71;105012;1272;74098;-77
2022/07/01 04:29:45;;;;;;;14.80;13.40;;;;;;;31.84;100.00;98513.04;105258;1269;61239;-77
2022/07/01 04:32:12;;;;;;;14.10;12.90;;;;;;;32.08;100.00;98518.50;104951;1271;61266;-75
2022/07/01 04:34:39;;;;;;;15.10;13.80;;;;;;;32.12;100.00;98522.24;104997;1272;76558;-77
2022/07/01 04:37:05;;;;;;;14.60;13.40;;;;;;;32.33;100.00;98523.69;105487;1271;69117;-75
2022/07/01 04:39:32;;;;;;;15.70;14.20;;;;;;;32.56;100.00;98523.62;105294;1271;61315;-78
2022/07/01 04:41:58;;;;;;;15.50;13.30;;;;;;;32.77;100.00;98525.02;105238;1271;61256;-76
2022/07/01 04:44:33;;;;;;;14.30;13.10;;;;;;;32.96;100.00;98527.94;105240;1271;62007;-77
2022/07/01 04:47:01;;;;;;;13.80;12.70;;;;;;;33.20;100.00;98527.61;105293;1271;75124;-75
2022/07/01 04:49:28;;;;;;;13.80;12.60;;;;;;;33.36;100.00;98526.99;105007;1271;69175;-75
2022/07/01 04:51:56;;;;;;;14.60;13.30;;;;;;;33.45;100.00;98527.63;105246;1271;74499;-76
2022/07/01 04:54:23;;;;;;;13.00;11.80;;;;;;;33.41;100.00;98529.79;104959;1271;61292;-76
2022/07/01 04:56:51;;;;;;;13.40;11.70;;;;;;;33.33;99.95;98530.39;105288;1271;61249;-76
2022/07/01 04:59:19;;;;;;;13.80;12.50;;;;;;;33.34;99.35;98530.88;105267;1271;75154;-76
2022/07/01 05:01:48;;;;;;;13.30;12.20;;;;;;;33.31;97.58;98531.69;105314;1271;70748;-77
2022/07/01 05:04:17;;;;;;;13.70;12.50;;;;;;;33.36;97.63;98524.73;105364;1271;73070;-76
2022/07/01 05:06:44;;;;;;;13.30;12.20;;;;;;;33.56;97.38;98528.11;105314;1271;61279;-76
2022/07/01 05:09:11;;;;;;;13.30;12.10;;;;;;;33.78;96.97;98525.96;105147;1274;61599;-76
2022/07/01 05:11:38;;;;;;;12.50;11.40;;;;;;;33.94;96.26;98526.74;104971;1271;75795;-75
2022/07/01 05:14:06;;;;;;;12.40;11.40;;;;;;;34.12;93.81;98527.55;105239;1271;70380;-72
2022/07/01 05:16:33;;;;;;;13.40;11.40;;;;;;;34.32;91.25;98524.45;105234;1271;74565;-71
2022/07/01 05:21:56;;;;;;;13.40;12.10;;;;;;;34.63;84.34;98522.29;105167;1271;61404;-71
2022/07/01 05:24:29;;;;;;;11.70;10.70;;;;;;;34.71;80.39;98519.95;105270;1271;66710;-71
2022/07/01 05:26:56;;;;;;;12.00;10.80;;;;;;;35.05;78.71;98521.98;105260;1271;61638;-72
2022/07/01 05:29:24;;;;;;;12.60;11.40;;;;;;;35.16;74.90;98528.05;105257;1271;65427;-71
2022/07/01 05:31:51;;;;;;;12.00;10.80;;;;;;;35.17;71.51;98527.95;105267;1271;61354;-71
2022/07/01 05:34:18;;;;;;;11.50;10.60;;;;;;;35.12;69.36;98529.48;105281;1271;61284;-71
2022/07/01 05:36:44;;;;;;;12.00;10.80;;;;;;;35.18;67.20;98533.60;105275;1270;67315;-72
2022/07/01 05:39:11;;;;;;;10.80;9.90;;;;;;;35.38;65.72;98527.75;105235;1271;69384;-71
2022/07/01 05:41:38;;;;;;;10.70;9.70;;;;;;;35.47;61.83;98524.58;105285;1270;65400;-71
2022/07/01 05:44:04;;;;;;;11.00;10.00;;;;;;;35.55;60.16;98523.88;104925;1271;432980;-72
2022/07/01 05:46:32;;;;;;;11.40;10.40;;;;;;;35.70;58.12;98523.39;105253;1271;61169;-72
2022/07/01 05:48:59;;;;;;;11.50;10.50;;;;;;;35.70;54.84;98521.07;105297;1271;66471;-72
2022/07/01 05:51:25;;;;;;;12.00;10.90;;;;;;;35.58;52.92;98518.01;105296;1271;61299;-71
2022/07/01 05:53:52;;;;;;;13.00;12.00;;;;;;;35.43;52.68;98516.45;104996;1274;65798;-71
2022/07/01 05:56:18;;;;;;;11.70;10.80;;;;;;;35.37;52.94;98516.44;105222;1271;61359;-71
2022/07/01 05:58:45;;;;;;;12.50;11.40;;;;;;;35.47;52.67;98515.05;105244;1271;61383;-70
2022/07/01 06:01:13;;;;;;;10.40;9.50;;;;;;;35.58;52.70;98516.30;104994;1271;66704;-71
2022/07/01 06:03:39;;;;;;;9.80;9.10;;;;;;;35.64;52.02;98518.96;105250;1271;61249;-71
2022/07/01 06:06:06;;;;;;;10.70;9.80;;;;;;;35.78;52.12;98517.95;105036;1272;61233;-72
2022/07/01 06:08:33;;;;;;;10.10;9.20;;;;;;;35.91;51.46;98514.98;105251;1270;61504;-73
2022/07/01 06:11:00;;;;;;;13.30;10.80;;;;;;;35.89;51.04;98515.11;104904;1271;61380;-72
2022/07/01 06:13:29;;;;;;;10.60;9.50;;;;;;;35.94;50.81;98513.59;104955;1272;67226;-72
2022/07/01 06:15:58;;;;;;;11.00;9.90;;;;;;;36.13;50.19;98512.52;105375;1271;61304;-71
2022/07/01 06:18:25;;;;;;;10.60;9.70;;;;;;;36.31;49.53;98512.80;104982;1272;63438;-73
2022/07/01 06:20:51;;;;;;;11.60;10.60;;;;;;;36.36;49.17;98509.46;105248;1271;61316;-73
2022/07/01 06:23:18;;;;;;;11.40;10.30;;;;;;;36.29;48.44;98508.37;105007;1272;61531;-72
2022/07/01 06:25:44;;;;;;;10.70;9.60;;;;;;;36.21;48.26;98504.84;105247;1271;67441;-73
2022/07/01 06:28:11;;;;;;;11.30;10.50;;;;;;;36.19;47.66;98507.41;105249;1271;61232;-71
2022/07/01 06:30:38;;;;;;;14.70;10.60;;;;;;;36.22;47.71;98508.30;105005;1271;65469;-71
2022/07/01 06:33:04;;;;;;;11.90;11.00;;;;;;;36.24;47.64;98504.12;105271;1271;61310;-71
2022/07/01 06:35:31;;;;;;;11.30;10.40;;;;;;;36.19;47.00;98503.86;105272;1271;61343;-71
2022/07/01 06:37:57;;;;;;;10.90;10.10;;;;;;;36.05;46.63;98504.04;105259;1271;61378;-72
2022/07/01 06:40:24;;;;;;;12.20;11.20;;;;;;;35.94;46.67;98505.62;105272;1271;61368;-72
2022/07/01 06:42:51;;;;;;;11.80;10.40;;;;;;;35.83;46.54;98511.57;105233;1271;65503;-73
2022/07/01 06:45:17;;;;;;;10.80;9.70;;;;;;;35.71;47.13;98517.90;105244;1271;61276;-72
2022/07/01 06:47:44;;;;;;;12.20;11.00;;;;;;;35.60;47.28;98520.17;105273;1270;61417;-71
2022/07/01 06:50:11;;;;;;;12.00;10.90;;;;;;;35.55;47.49;98519.05;105227;1271;67645;-72
2022/07/01 06:52:37;;;;;;;11.50;10.70;;;;;;;35.65;47.52;98520.96;105212;1269;61370;-72
2022/07/01 06:55:04;;;;;;;12.20;10.80;;;;;;;35.77;47.41;98520.39;105246;1271;61493;-72
2022/07/01 06:57:31;;;;;;;11.50;10.60;;;;;;;35.88;47.51;98515.16;105264;1271;61275;-72
2022/07/01 06:59:57;;;;;;;10.50;9.60;;;;;;;35.92;46.97;98514.71;105250;1271;61272;-72
2022/07/01 07:02:24;;;;;;;10.50;9.60;;;;;;;35.98;47.04;98510.54;105239;1271;61303;-72
2022/07/01 07:04:54;;;;;;;10.70;9.50;;;;;;;36.08;46.66;98505.66;105242;1271;61313;-71
2022/07/01 07:07:20;;;;;;;10.90;9.80;;;;;;;36.06;45.89;98507.33;105002;1271;64463;-71
2022/07/01 07:09:47;;;;;;;10.50;9.50;;;;;;;35.93;46.14;98508.39;105214;1271;61322;-72
2022/07/01 07:12:13;;;;;;;10.30;9.30;;;;;;;35.97;45.86;98507.93;105212;1271;61174;-72
2022/07/01 07:14:40;;;;;;;9.80;8.90;;;;;;;36.05;45.69;98503.66;105227;1271;75344;-73
2022/07/01 07:17:07;;;;;;;11.40;9.20;;;;;;;36.11;45.50;98499.99;105535;1271;60653;-73
2022/07/01 07:19:33;;;;;;;9.70;8.90;;;;;;;36.18;45.66;98498.70;105231;1271;64320;-72
2022/07/01 07:22:00;;;;;;;10.00;9.10;;;;;;;36.22;45.48;98502.46;105219;1271;61318;-72
2022/07/01 07:24:26;;;;;;;10.60;9.50;;;;;;;36.23;44.19;98503.40;105216;1271;61279;-72
2022/07/01 07:26:53;;;;;;;12.90;8.40;;;;;;;36.15;43.67;98508.91;105205;1271;61194;-71
2022/07/01 07:29:20;;;;;;;10.80;9.10;;;;;;;36.11;43.53;98504.48;105011;1271;61986;-71
2022/07/01 07:31:47;;;;;;;10.60;9.50;;;;;;;36.04;43.69;98505.76;105259;1271;65526;-71
2022/07/01 07:34:13;;;;;;;10.10;9.30;;;;;;;35.92;43.58;98504.95;105280;1271;61326;-71
2022/07/01 07:36:40;;;;;;;10.90;9.80;;;;;;;35.63;42.97;98508.03;105308;1271;61279;-72
2022/07/01 07:39:06;;;;;;;9.60;8.90;;;;;;;35.16;42.71;98511.75;105278;1271;66366;-72
2022/07/01 07:41:33;;;;;;;10.50;9.60;;;;;;;34.75;43.16;98509.36;105289;1271;61305;-71
2022/07/01 07:43:59;;;;;;;10.50;9.50;;;;;;;34.49;43.44;98507.98;105237;1271;64389;-72
2022/07/01 07:46:26;;;;;;;10.90;9.90;;;;;;;34.27;44.01;98507.77;105256;1271;61295;-71
2022/07/01 07:48:52;;;;;;;11.90;9.50;;;;;;;34.15;44.51;98513.47;105262;1271;61753;-71
2022/07/01 07:51:22;;;;;;;9.50;8.80;;;;;;;34.01;44.79;98513.41;105264;1271;76019;-72
2022/07/01 07:53:49;;;;;;;10.10;9.20;;;;;;;33.92;44.89;98526.13;105280;1269;69739;-71
2022/07/01 07:56:15;;;;;;;9.40;8.60;;;;;;;33.70;45.19;98526.23;105235;1271;74386;-71
2022/07/01 07:58:43;;;;;;;9.10;8.30;;;;;;;33.58;45.44;98523.89;105257;1271;61296;-71
2022/07/01 08:01:10;;;;;;;10.10;9.20;;;;;;;33.67;46.17;98522.58;105253;1271;61355;-71
2022/07/01 08:03:36;;;;;;;9.80;8.90;;;;;;;33.77;46.90;98522.71;105275;1271;75376;-74
2022/07/01 08:06:03;;;;;;;10.40;9.40;;;;;;;33.87;46.49;98521.94;105250;1271;69377;-72
2022/07/01 08:08:30;;;;;;;11.90;9.50;;;;;;;33.82;46.49;98523.34;105257;1271;73400;-73
2022/07/01 08:10:57;;;;;;;8.70;7.90;;;;;;;33.85;47.06;98522.64;105251;1271;61259;-72
2022/07/01 08:13:24;;;;;;;10.10;7.20;;;;;;;33.82;44.23;98529.88;105307;1271;61182;-72
2022/07/01 08:15:50;;;;;;;7.90;7.00;;;;;;;33.54;43.17;98524.27;105248;1271;76300;-72
2022/07/01 08:18:17;;;;;;;7.40;6.70;;;;;;;33.47;44.69;98524.55;105312;1271;69500;-73
2022/07/01 08:20:43;;;;;;;8.50;7.80;;;;;;;33.55;44.46;98526.67;104947;1271;71375;-73
2022/07/01 08:23:10;;;;;;;10.00;7.60;;;;;;;33.59;44.75;98527.70;105261;1270;61250;-73
2022/07/01 08:25:37;;;;;;;7.70;7.00;;;;;;;33.63;44.86;98528.41;105290;1271;61329;-72
2022/07/01 08:28:04;;;;;;;8.70;7.70;;;;;;;33.69;45.00;98530.66;105009;1271;76337;-73
2022/07/01 08:30:33;;;;;;;8.10;7.40;;;;;;;33.75;45.07;98528.94;105249;1271;69374;-72
2022/07/01 08:33:00;;;;;;;9.70;7.90;;;;;;;33.77;45.06;98534.81;105264;1271;73471;-72
2022/07/01 08:35:27;;;;;;;8.40;7.60;;;;;;;33.79;44.49;98538.14;105260;1271;61323;-72
2022/07/01 08:37:53;;;;;;;10.80;8.20;;;;;;;33.75;44.43;98535.24;105260;1269;61307;-72
2022/07/01 08:40:25;;;;;;;9.80;7.80;;;;;;;33.67;43.67;98537.12;105290;1271;61271;-73
2022/07/01 08:42:55;;;;;;;7.90;7.10;;;;;;;33.61;44.74;98535.79;105310;1270;69639;-72
2022/07/01 08:45:25;;;;;;;9.10;8.00;;;;;;;33.74;45.03;98535.84;105273;1271;74306;-73
2022/07/01 08:47:55;;;;;;;9.40;7.30;;;;;;;33.91;44.81;98538.89;105380;1271;61399;-72
2022/07/01 08:50:22;;;;;;;7.80;7.20;;;;;;;34.01;44.83;98539.02;105441;1271;61294;-72
2022/07/01 08:52:48;;;;;;;11.30;7.80;;;;;;;34.06;43.87;98535.85;105277;1271;74808;-72
2022/07/01 08:55:15;;;;;;;9.40;7.80;;;;;;;34.07;45.09;98540.17;105269;1271;70153;-72
2022/07/01 08:57:42;;;;;;;7.60;6.90;;;;;;;34.24;45.25;98539.63;105330;1271;73119;-73
2022/07/01 09:00:09;;;;;;;10.80;7.60;;;;;;;34.37;44.81;98532.22;105289;1271;61288;-72
2022/07/01 09:02:56;;;;;;;11.10;8.60;;;;;;;34.38;43.68;98533.45;104929;1274;61403;-73
2022/07/01 09:05:24;;;;;;;8.70;7.00;;;;;;;34.16;43.35;98529.45;104900;1274;76276;-73
2022/07/01 09:08:05;;;;;;;9.00;7.40;;;;;;;34.16;44.70;98528.84;104915;1274;69830;-73
2022/07/01 09:10:34;;;;;;;9.00;8.00;;;;;;;34.36;44.61;98526.69;104876;1274;73291;-72
2022/07/01 09:13:09;;;;;;;9.90;6.20;;;;;;;34.45;43.43;98528.40;104926;1274;61454;-73
2022/07/01 09:15:37;;;;;;;8.20;6.40;;;;;;;34.37;43.00;98527.19;104886;1277;61369;-73
2022/07/01 09:18:10;;;;;;;11.50;6.10;;;;;;;34.35;42.32;98522.80;104696;1274;76368;-73
2022/07/01 09:20:40;;;;;;;6.00;5.50;;;;;;;34.31;40.53;98521.62;104906;1274;70159;-73
2022/07/01 09:23:12;;;;;;;6.20;5.60;;;;;;;34.25;40.53;98519.89;104941;1274;73542;-72
2022/07/01 09:25:45;;;;;;;9.10;6.00;;;;;;;34.26;41.30;98520.38;104923;1274;61365;-73
2022/07/01 09:28:13;;;;;;;8.90;6.10;;;;;;;34.42;41.57;98523.73;104888;1274;61278;-73
2022/07/01 09:30:51;;;;;;;11.60;5.80;;;;;;;34.52;40.90;98523.44;104964;1274;67639;-72
2022/07/01 09:33:19;;;;;;;7.80;6.10;;;;;;;34.58;41.03;98523.98;104864;1277;69417;-73
2022/07/01 09:35:49;;;;;;;7.30;5.50;;;;;;;34.75;41.71;98522.94;104893;1274;73437;-72
2022/07/01 09:38:18;;;;;;;10.10;5.70;;;;;;;34.97;41.79;98525.88;105069;1274;61388;-75
2022/07/01 09:40:53;;;;;;;6.60;5.60;;;;;;;35.09;40.38;98526.64;105130;1271;61360;-73
2022/07/01 09:43:26;;;;;;;8.70;6.50;;;;;;;35.11;40.39;98525.89;105281;1270;66573;-72
2022/07/01 09:46:03;;;;;;;6.30;5.80;;;;;;;35.17;40.08;98529.72;105384;1271;61286;-72
2022/07/01 09:48:32;;;;;;;6.50;5.40;;;;;;;35.23;40.40;98530.55;104988;1271;64159;-73
2022/07/01 09:51:04;;;;;;;6.00;5.40;;;;;;;35.39;40.50;98525.91;105270;1270;61364;-73
2022/07/01 09:53:31;;;;;;;6.10;5.50;;;;;;;35.56;40.24;98521.83;105246;1271;61280;-73
2022/07/01 09:55:59;;;;;;;6.40;5.90;;;;;;;35.68;39.74;98521.95;105265;1270;66397;-72
2022/07/01 09:58:26;;;;;;;10.00;7.00;;;;;;;35.75;39.36;98519.79;105287;1271;61284;-72
2022/07/01 10:00:54;;;;;;;6.20;5.60;;;;;;;35.79;39.08;98519.12;105291;1271;65389;-73
2022/07/01 10:03:22;;;;;;;8.00;5.60;;;;;;;35.86;39.28;98517.66;105008;1271;61282;-73
2022/07/01 10:06:18;;;;;;;7.00;5.90;;;;;;;35.93;38.99;98512.66;105254;1271;61487;-74
2022/07/01 10:08:58;;;;;;;6.80;6.10;;;;;;;36.01;39.18;98514.36;104563;1277;67935;-73
2022/07/01 10:12:02;;;;;;;10.40;6.40;;;;;;;36.12;38.96;98509.91;104534;1280;61438;-72
2022/07/01 10:14:31;;;;;;;11.10;5.90;;;;;;;36.17;38.42;98506.13;104536;1280;65875;-72
2022/07/01 10:16:58;;;;;;;7.80;6.70;;;;;;;36.21;38.28;98501.58;104651;1277;61500;-72
2022/07/01 10:19:29;;;;;;;8.30;6.10;;;;;;;36.32;38.65;98495.98;104533;1280;61319;-72
2022/07/01 10:22:00;;;;;;;8.90;6.20;;;;;;;36.42;38.53;98499.00;104637;1279;66401;-71
2022/07/01 10:24:28;;;;;;;6.60;5.70;;;;;;;36.49;37.90;98495.26;104529;1279;61752;-73
2022/07/01 10:27:01;;;;;;;7.50;5.60;;;;;;;36.54;38.00;98492.58;104509;1279;72906;-73
2022/07/01 10:29:35;;;;;;;11.90;5.80;;;;;;;36.61;37.47;98491.02;104686;1279;61411;-73
2022/07/01 10:32:22;;;;;;;9.60;5.90;;;;;;;36.67;37.32;98485.64;104486;1278;61479;-73
2022/07/01 10:34:49;;;;;;;7.40;6.20;;;;;;;36.73;36.85;98483.16;103989;1285;67438;-73
2022/07/01 10:37:17;;;;;;;5.80;5.30;;;;;;;36.78;37.19;98486.04;103964;1285;61465;-72
2022/07/01 10:40:03;;;;;;;8.00;5.90;;;;;;;36.81;36.06;98479.30;103809;1285;64460;-73
2022/07/01 10:42:37;;;;;;;6.50;5.30;;;;;;;36.76;35.41;98475.16;103991;1285;61348;-72
2022/07/01 10:45:11;;;;;;;6.50;5.70;;;;;;;36.75;36.12;98475.43;104166;1285;61418;-72
2022/07/01 10:47:39;;;;;;;6.10;5.50;;;;;;;36.79;35.70;98476.85;104541;1281;67323;-73
2022/07/01 10:50:09;;;;;;;6.70;5.00;;;;;;;36.81;35.09;98481.35;104494;1281;61482;-73
2022/07/01 10:52:36;;;;;;;5.40;5.00;;;;;;;36.77;34.61;98477.27;104479;1279;64541;-72
2022/07/01 10:55:05;;;;;;;5.30;4.80;;;;;;;36.79;34.33;98475.36;104407;1280;61576;-73
2022/07/01 10:57:37;;;;;;;;;;;;;;;36.82;33.33;98471.06;104466;1281;61324;-72
2022/07/01 11:00:03;;;;;;;4.70;4.00;;;;;;;36.73;32.96;98472.67;104490;1281;67618;-75
2022/07/01 11:02:35;;;;;;;5.40;4.30;;;;;;;36.67;32.22;98474.32;104455;1281;61228;-73
2022/07/01 11:05:07;;;;;;;5.40;4.90;;;;;;;36.61;32.78;98478.06;104196;1281;64577;-75
2022/07/01 11:07:45;;;;;;;9.10;4.90;;;;;;;36.62;32.10;98473.17;104605;1281;61412;-72
2022/07/01 11:10:18;;;;;;;6.80;4.50;;;;;;;36.54;32.34;98471.59;104705;1279;61855;-73
2022/07/01 11:12:48;;;;;;;7.80;4.60;;;;;;;36.48;32.23;98471.39;104866;1271;67726;-73
2022/07/01 11:15:15;;;;;;;5.60;4.70;;;;;;;36.43;32.56;98469.80;105163;1271;61291;-73
2022/07/01 11:17:45;;;;;;;7.50;4.80;;;;;;;36.42;32.51;98467.02;105137;1271;64906;-73
2022/07/01 11:20:12;;;;;;;5.60;5.00;;;;;;;36.36;31.77;98463.89;105194;1271;61414;-73
2022/07/01 11:22:40;;;;;;;13.00;5.30;;;;;;;36.26;31.93;98459.05;105210;1271;61299;-75
2022/07/01 11:25:11;;;;;;;6.30;4.70;;;;;;;36.24;31.78;98453.73;105392;1270;67652;-73